createdAt,value
2018-04-15T00:00:00.523Z,92.46
2018-04-15T00:01:00.197Z,92.26
2018-04-15T00:02:00.688Z,92.65
2018-04-15T00:02:59.739Z,92.41
2018-04-15T00:04:00.220Z,92.88
2018-04-15T00:05:01.265Z,92.93
2018-04-15T00:06:00.286Z,92.74
2018-04-15T00:07:00.111Z,92.93
2018-04-15T00:07:59.919Z,93.22
2018-04-15T00:08:59.448Z,92.93
2018-04-15T00:10:00.332Z,92.83
2018-04-15T00:11:00.691Z,93.12
2018-04-15T00:11:59.813Z,92.74
2018-04-15T00:12:59.281Z,92.93
2018-04-15T00:13:59.778Z,92.83
2018-04-15T00:14:59.261Z,92.36
2018-04-15T00:16:01.985Z,92.26
2018-04-15T00:17:06.609Z,92.46
2018-04-15T00:18:00.059Z,92.36
2018-04-15T00:18:59.969Z,92.46
2018-04-15T00:19:59.107Z,92.65
2018-04-15T00:21:00.101Z,92.65
2018-04-15T00:22:00.454Z,92.65
2018-04-15T00:23:00.397Z,92.46
2018-04-15T00:24:00.660Z,91.98
2018-04-15T00:24:59.253Z,92.55
2018-04-15T00:26:00.341Z,91.88
2018-04-15T00:27:00.202Z,91.98
2018-04-15T00:28:00.828Z,92.36
2018-04-15T00:29:00.974Z,92.55
2018-04-15T00:30:00.973Z,91.98
2018-04-15T00:31:00.987Z,92.07
2018-04-15T00:31:58.940Z,91.60
2018-04-15T00:32:59.288Z,91.50
2018-04-15T00:33:59.557Z,91.88
2018-04-15T00:34:59.692Z,91.88
2018-04-15T00:36:00.660Z,91.60
2018-04-15T00:37:01.488Z,91.69
2018-04-15T00:38:02.023Z,91.50
2018-04-15T00:39:00.397Z,91.60
2018-04-15T00:39:59.242Z,92.17
2018-04-15T00:41:00.375Z,91.69
2018-04-15T00:41:59.799Z,91.41
2018-04-15T00:43:02.744Z,91.98
2018-04-15T00:43:59.936Z,91.98
2018-04-15T00:45:00.960Z,92.36
2018-04-15T00:46:01.263Z,92.26
2018-04-15T00:47:00.751Z,92.07
2018-04-15T00:48:00.886Z,91.50
2018-04-15T00:49:01.917Z,91.07
2018-04-15T00:50:00.053Z,91.78
2018-04-15T00:50:59.273Z,91.50
2018-04-15T00:51:59.065Z,91.69
2018-04-15T00:52:59.642Z,91.69
2018-04-15T00:53:59.006Z,91.41
2018-04-15T00:55:00.396Z,90.64
2018-04-15T00:55:59.954Z,90.45
2018-04-15T00:56:59.277Z,91.50
2018-04-15T00:58:00.654Z,90.93
2018-04-15T00:58:59.270Z,90.64
2018-04-15T00:59:59.086Z,90.98
2018-04-15T01:01:00.002Z,90.64
2018-04-15T01:02:00.632Z,91.69
2018-04-15T01:03:00.362Z,91.60
2018-04-15T01:04:00.450Z,91.69
2018-04-15T01:04:59.630Z,91.55
2018-04-15T01:05:59.589Z,91.69
2018-04-15T01:06:59.627Z,91.02
2018-04-15T01:08:00.437Z,90.73
2018-04-15T01:08:59.885Z,91.46
2018-04-15T01:10:00.556Z,91.46
2018-04-15T01:10:59.122Z,91.64
2018-04-15T01:11:59.900Z,91.74
2018-04-15T01:13:01.300Z,91.64
2018-04-15T01:14:01.566Z,91.83
2018-04-15T01:15:01.574Z,91.83
2018-04-15T01:15:59.244Z,91.74
2018-04-15T01:16:59.603Z,91.74
2018-04-15T01:17:59.073Z,92.12
2018-04-15T01:19:02.327Z,92.22
2018-04-15T01:20:01.893Z,92.60
2018-04-15T01:21:02.261Z,93.08
2018-04-15T01:21:59.577Z,92.79
2018-04-15T01:23:00.052Z,93.08
2018-04-15T01:23:59.900Z,93.17
2018-04-15T01:25:01.736Z,93.55
2018-04-15T01:26:04.752Z,93.36
2018-04-15T01:27:02.136Z,93.46
2018-04-15T01:27:59.144Z,93.08
2018-04-15T01:29:00.112Z,92.79
2018-04-15T01:29:59.319Z,92.88
2018-04-15T01:31:01.135Z,93.36
2018-04-15T01:31:59.236Z,93.27
2018-04-15T01:32:59.532Z,92.98
2018-04-15T01:34:00.873Z,93.17
2018-04-15T01:34:59.339Z,93.27
2018-04-15T01:36:00.413Z,93.65
2018-04-15T01:37:00.008Z,93.55
2018-04-15T01:37:59.612Z,94.03
2018-04-15T01:38:59.123Z,94.51
2018-04-15T01:39:59.249Z,94.12
2018-04-15T01:40:59.955Z,94.07
2018-04-15T01:41:59.856Z,94.36
2018-04-15T01:42:59.604Z,94.27
2018-04-15T01:44:02.320Z,94.65
2018-04-15T01:44:59.974Z,94.32
2018-04-15T01:46:00.258Z,94.27
2018-04-15T01:47:02.757Z,94.56
2018-04-15T01:48:03.201Z,94.56
2018-04-15T01:49:02.571Z,94.36
2018-04-15T01:50:00.513Z,95.51
2018-04-15T01:51:00.420Z,95.41
2018-04-15T01:52:00.019Z,95.89
2018-04-15T01:53:01.806Z,95.12
2018-04-15T01:54:00.276Z,95.41
2018-04-15T01:55:00.662Z,95.61
2018-04-15T01:55:59.097Z,95.70
2018-04-15T01:56:59.530Z,95.98
2018-04-15T01:58:00.032Z,96.17
2018-04-15T01:59:04.496Z,96.17
2018-04-15T01:59:59.839Z,96.17
2018-04-15T02:01:00.998Z,96.37
2018-04-15T02:01:59.889Z,96.08
2018-04-15T02:02:59.961Z,95.12
2018-04-15T02:03:59.572Z,95.70
2018-04-15T02:05:00.798Z,95.70
2018-04-15T02:05:58.846Z,96.27
2018-04-15T02:07:00.680Z,96.70
2018-04-15T02:07:59.872Z,96.84
2018-04-15T02:09:00.452Z,96.94
2018-04-15T02:10:00.050Z,97.22
2018-04-15T02:11:00.800Z,98.13
2018-04-15T02:12:00.497Z,98.03
2018-04-15T02:13:01.989Z,98.13
2018-04-15T02:14:01.463Z,98.90
2018-04-15T02:15:02.396Z,98.99
2018-04-15T02:15:59.893Z,99.56
2018-04-15T02:16:59.941Z,99.85
2018-04-15T02:18:00.603Z,99.99
2018-04-15T02:19:00.221Z,99.99
2018-04-15T02:20:00.298Z,99.99
2018-04-15T02:21:02.456Z,99.99
2018-04-15T02:22:10.778Z,99.99
2018-04-15T02:23:01.766Z,99.99
2018-04-15T02:24:00.242Z,99.99
2018-04-15T02:25:01.877Z,99.99
2018-04-15T02:26:00.897Z,99.99
2018-04-15T02:26:59.843Z,99.99
2018-04-15T02:28:00.498Z,99.99
2018-04-15T02:29:01.692Z,99.99
2018-04-15T02:30:06.225Z,99.99
2018-04-15T02:31:02.116Z,99.99
2018-04-15T02:32:04.099Z,99.99
2018-04-15T02:33:04.154Z,99.99
2018-04-15T02:34:08.539Z,99.99
2018-04-15T02:35:01.319Z,99.99
2018-04-15T02:35:59.394Z,99.99
2018-04-15T02:37:00.403Z,99.99
2018-04-15T02:37:59.999Z,99.99
2018-04-15T02:39:04.241Z,99.99
2018-04-15T02:40:02.703Z,99.99
2018-04-15T02:40:59.606Z,99.99
2018-04-15T02:42:01.037Z,99.99
2018-04-15T02:43:00.871Z,99.99
2018-04-15T02:44:00.330Z,99.99
2018-04-15T02:45:01.674Z,99.99
2018-04-15T02:46:00.683Z,99.99
2018-04-15T02:47:01.696Z,99.99
2018-04-15T02:48:02.944Z,99.99
2018-04-15T02:49:04.340Z,99.99
2018-04-15T02:50:00.584Z,99.99
2018-04-15T02:51:05.597Z,99.99
2018-04-15T02:52:00.272Z,99.99
2018-04-15T02:53:01.090Z,99.99
2018-04-15T02:54:00.371Z,99.99
2018-04-15T02:55:09.064Z,99.99
2018-04-15T02:56:02.491Z,99.99
2018-04-15T02:57:04.552Z,99.99
2018-04-15T02:58:00.612Z,99.99
2018-04-15T02:59:08.757Z,99.99
2018-04-15T03:00:00.309Z,99.99
2018-04-15T03:01:03.957Z,99.99
2018-04-15T03:02:01.527Z,99.99
2018-04-15T03:03:02.266Z,99.99
2018-04-15T03:04:00.416Z,99.99
2018-04-15T03:05:03.576Z,99.99
2018-04-15T03:06:03.840Z,99.99
2018-04-15T03:07:00.788Z,99.99
2018-04-15T03:08:03.770Z,99.99
2018-04-15T03:09:03.483Z,99.99
2018-04-15T03:10:00.037Z,99.99
2018-04-15T03:11:03.121Z,99.99
2018-04-15T03:12:02.609Z,99.99
2018-04-15T03:13:00.614Z,99.99
2018-04-15T03:14:03.835Z,99.99
2018-04-15T03:15:02.704Z,99.99
2018-04-15T03:16:03.294Z,99.99
2018-04-15T03:17:03.095Z,99.99
2018-04-15T03:18:00.443Z,99.99
2018-04-15T03:19:04.635Z,99.99
2018-04-15T03:20:00.639Z,99.99
2018-04-15T03:21:05.210Z,99.99
2018-04-15T03:21:59.961Z,99.99
2018-04-15T03:23:01.922Z,99.99
2018-04-15T03:23:59.299Z,99.99
2018-04-15T03:25:00.799Z,99.99
2018-04-15T03:25:59.743Z,99.99
2018-04-15T03:27:00.925Z,99.99
2018-04-15T03:28:00.975Z,99.99
2018-04-15T03:29:02.811Z,99.99
2018-04-15T03:30:02.576Z,99.99
2018-04-15T03:31:01.372Z,99.99
2018-04-15T03:32:00.385Z,99.99
2018-04-15T03:33:02.735Z,99.99
2018-04-15T03:34:00.991Z,99.99
2018-04-15T03:35:02.431Z,99.99
2018-04-15T03:36:02.625Z,99.99
2018-04-15T03:37:01.831Z,99.99
2018-04-15T03:38:04.160Z,99.99
2018-04-15T03:39:00.874Z,99.99
2018-04-15T03:40:02.678Z,99.99
2018-04-15T03:41:01.452Z,99.99
2018-04-15T03:42:02.987Z,99.99
2018-04-15T03:43:01.769Z,99.99
2018-04-15T03:44:08.010Z,99.99
2018-04-15T03:45:02.629Z,99.99
2018-04-15T03:46:02.976Z,99.99
2018-04-15T03:47:01.239Z,99.99
2018-04-15T03:48:04.954Z,99.99
2018-04-15T03:49:02.487Z,99.99
2018-04-15T03:50:02.612Z,99.99
2018-04-15T03:51:01.721Z,99.99
2018-04-15T03:52:02.887Z,99.99
2018-04-15T03:53:01.908Z,99.99
2018-04-15T03:54:02.797Z,99.99
2018-04-15T03:55:02.680Z,99.99
2018-04-15T03:56:02.305Z,99.99
2018-04-15T03:57:02.918Z,99.99
2018-04-15T03:58:02.685Z,99.99
2018-04-15T03:59:03.565Z,99.99
2018-04-15T04:00:01.273Z,99.99
2018-04-15T04:01:03.124Z,99.99
2018-04-15T04:02:02.206Z,99.99
2018-04-15T04:03:03.955Z,99.99
2018-04-15T04:04:01.319Z,99.99
2018-04-15T04:05:04.120Z,99.99
2018-04-15T04:06:01.292Z,99.99
2018-04-15T04:07:02.016Z,99.99
2018-04-15T04:08:00.668Z,99.99
2018-04-15T04:09:06.123Z,99.99
2018-04-15T04:10:00.545Z,99.99
2018-04-15T04:11:05.844Z,99.99
2018-04-15T04:12:00.154Z,99.99
2018-04-15T04:13:03.688Z,99.99
2018-04-15T04:14:02.086Z,99.99
2018-04-15T04:15:03.661Z,99.99
2018-04-15T04:16:04.173Z,99.99
2018-04-15T04:17:05.337Z,99.99
2018-04-15T04:18:03.855Z,99.99
2018-04-15T04:19:03.468Z,99.99
2018-04-15T04:20:04.201Z,99.99
2018-04-15T04:21:03.101Z,99.99
2018-04-15T04:22:03.095Z,99.99
2018-04-15T04:23:00.199Z,99.99
2018-04-15T04:24:04.715Z,99.99
2018-04-15T04:25:00.564Z,99.99
2018-04-15T04:26:02.880Z,99.99
2018-04-15T04:26:59.085Z,99.99
2018-04-15T04:28:00.609Z,99.99
2018-04-15T04:29:01.512Z,99.99
2018-04-15T04:29:59.757Z,99.99
2018-04-15T04:31:00.839Z,99.99
2018-04-15T04:32:04.135Z,99.99
2018-04-15T04:32:59.245Z,99.99
2018-04-15T04:34:02.969Z,99.99
2018-04-15T04:35:01.868Z,99.99
2018-04-15T04:36:06.098Z,99.99
2018-04-15T04:37:00.536Z,99.99
2018-04-15T04:38:08.564Z,99.99
2018-04-15T04:39:01.742Z,99.99
2018-04-15T04:40:06.324Z,99.99
2018-04-15T04:41:03.324Z,99.99
2018-04-15T04:42:06.896Z,99.99
2018-04-15T04:43:02.489Z,99.99
2018-04-15T04:44:02.660Z,99.99
2018-04-15T04:45:00.903Z,99.99
2018-04-15T04:46:02.490Z,99.99
2018-04-15T04:47:00.876Z,99.99
2018-04-15T04:48:01.599Z,99.99
2018-04-15T04:49:02.004Z,99.99
2018-04-15T04:50:02.267Z,99.99
2018-04-15T04:51:01.544Z,99.99
2018-04-15T04:52:03.828Z,99.99
2018-04-15T04:53:04.260Z,99.99
2018-04-15T04:54:03.491Z,99.99
2018-04-15T04:55:02.032Z,99.99
2018-04-15T04:56:03.194Z,99.99
2018-04-15T04:57:04.863Z,99.99
2018-04-15T04:58:03.738Z,99.99
2018-04-15T04:59:01.401Z,99.99
2018-04-15T05:00:05.000Z,99.99
2018-04-15T05:01:01.209Z,99.99
2018-04-15T05:02:00.269Z,99.99
2018-04-15T05:03:05.732Z,99.99
2018-04-15T05:04:04.177Z,99.99
2018-04-15T05:05:03.036Z,99.99
2018-04-15T05:06:06.522Z,99.99
2018-04-15T05:07:00.850Z,99.99
2018-04-15T05:08:02.510Z,99.99
2018-04-15T05:09:04.100Z,99.99
2018-04-15T05:10:04.221Z,99.99
2018-04-15T05:11:02.729Z,99.99
2018-04-15T05:12:05.931Z,99.99
2018-04-15T05:13:00.949Z,99.99
2018-04-15T05:14:04.429Z,99.99
2018-04-15T05:15:01.111Z,99.99
2018-04-15T05:17:01.872Z,99.99
2018-04-15T05:18:02.702Z,99.99
2018-04-15T05:19:02.408Z,99.99
2018-04-15T05:21:03.201Z,99.99
2018-04-15T05:22:04.678Z,99.99
2018-04-15T05:23:05.747Z,99.99
2018-04-15T05:24:09.107Z,99.99
2018-04-15T05:25:07.864Z,99.99
2018-04-15T05:26:02.792Z,99.99
2018-04-15T05:27:03.328Z,99.99
2018-04-15T05:28:05.680Z,99.99
2018-04-15T05:29:11.349Z,99.99
2018-04-15T05:30:02.116Z,99.99
2018-04-15T05:31:02.732Z,99.99
2018-04-15T05:33:10.179Z,99.99
2018-04-15T05:34:06.061Z,99.99
2018-04-15T05:35:10.910Z,99.99
2018-04-15T05:36:08.787Z,99.99
2018-04-15T05:37:06.635Z,99.99
2018-04-15T05:38:02.408Z,99.99
2018-04-15T05:39:07.919Z,99.99
2018-04-15T05:40:06.590Z,99.99
2018-04-15T05:41:05.558Z,99.99
2018-04-15T05:42:01.732Z,99.99
2018-04-15T05:43:14.557Z,99.99
2018-04-15T05:44:08.648Z,99.99
2018-04-15T05:46:02.438Z,99.99
2018-04-15T05:47:02.287Z,99.99
2018-04-15T05:48:08.783Z,99.99
2018-04-15T05:49:07.042Z,99.99
2018-04-15T05:50:00.509Z,99.99
2018-04-15T05:51:01.525Z,99.99
2018-04-15T05:52:01.195Z,99.99
2018-04-15T05:53:02.114Z,99.99
2018-04-15T05:54:04.093Z,99.99
2018-04-15T05:55:05.720Z,99.99
2018-04-15T05:56:08.272Z,99.99
2018-04-15T05:57:04.663Z,99.99
2018-04-15T05:58:05.518Z,99.99
2018-04-15T05:59:04.757Z,99.99
2018-04-15T06:00:02.271Z,99.99
2018-04-15T06:01:04.893Z,99.99
2018-04-15T06:02:05.670Z,99.99
2018-04-15T06:03:04.297Z,99.99
2018-04-15T06:04:08.370Z,99.99
2018-04-15T06:05:11.362Z,99.99
2018-04-15T06:06:04.181Z,99.99
2018-04-15T06:07:04.464Z,99.99
2018-04-15T06:08:03.016Z,99.99
2018-04-15T06:09:03.491Z,99.99
2018-04-15T06:10:02.141Z,99.99
2018-04-15T06:11:05.755Z,99.99
2018-04-15T06:12:02.200Z,99.99
2018-04-15T06:13:06.161Z,99.99
2018-04-15T06:14:04.547Z,99.99
2018-04-15T06:15:03.146Z,99.99
2018-04-15T06:16:04.777Z,99.99
2018-04-15T06:17:04.674Z,99.99
2018-04-15T06:18:05.138Z,99.99
2018-04-15T06:19:05.640Z,99.99
2018-04-15T06:20:04.846Z,99.99
2018-04-15T06:21:05.533Z,99.99
2018-04-15T06:22:06.601Z,99.99
2018-04-15T06:23:03.428Z,99.99
2018-04-15T06:24:01.639Z,99.99
2018-04-15T06:25:02.138Z,99.99
2018-04-15T06:26:03.125Z,99.99
2018-04-15T06:27:09.162Z,99.99
2018-04-15T06:28:02.158Z,99.99
2018-04-15T06:30:10.592Z,99.99
2018-04-15T06:31:03.320Z,99.99
2018-04-15T06:32:03.181Z,99.99
2018-04-15T06:34:03.543Z,99.99
2018-04-15T06:35:08.170Z,99.99
2018-04-15T06:36:03.217Z,99.99
2018-04-15T06:38:00.647Z,99.99
2018-04-15T06:39:04.158Z,99.99
2018-04-15T06:40:02.521Z,99.99
2018-04-15T06:41:02.770Z,99.99
2018-04-15T06:42:02.328Z,99.99
2018-04-15T06:43:01.743Z,99.99
2018-04-15T06:44:00.409Z,99.99
2018-04-15T06:45:03.303Z,99.99
2018-04-15T06:46:06.443Z,99.99
2018-04-15T06:47:01.223Z,99.99
2018-04-15T06:48:01.859Z,99.99
2018-04-15T06:49:02.065Z,99.99
2018-04-15T06:50:04.561Z,99.99
2018-04-15T06:51:03.918Z,99.99
2018-04-15T06:52:11.999Z,99.99
2018-04-15T06:53:01.624Z,99.99
2018-04-15T06:54:01.675Z,99.99
2018-04-15T06:55:07.553Z,99.99
2018-04-15T06:56:03.732Z,99.99
2018-04-15T06:57:05.917Z,99.99
2018-04-15T06:58:03.182Z,99.99
2018-04-15T06:59:02.205Z,99.99
2018-04-15T07:00:03.114Z,99.99
2018-04-15T07:01:03.886Z,99.99
2018-04-15T07:02:03.669Z,99.99
2018-04-15T07:03:02.085Z,99.99
2018-04-15T07:04:04.428Z,99.99
2018-04-15T07:05:02.123Z,99.99
2018-04-15T07:06:01.090Z,99.99
2018-04-15T07:07:05.250Z,99.99
2018-04-15T07:08:00.425Z,99.99
2018-04-15T07:09:00.890Z,99.99
2018-04-15T07:10:07.332Z,99.99
2018-04-15T07:11:02.593Z,99.99
2018-04-15T07:12:07.583Z,99.99
2018-04-15T07:13:07.043Z,99.99
2018-04-15T07:14:02.847Z,99.99
2018-04-15T07:15:01.812Z,99.99
2018-04-15T07:15:59.909Z,99.99
2018-04-15T07:17:02.885Z,99.99
2018-04-15T07:18:07.992Z,99.99
2018-04-15T07:19:03.179Z,99.99
2018-04-15T07:20:02.071Z,99.99
2018-04-15T07:21:04.578Z,99.99
2018-04-15T07:22:05.384Z,99.99
2018-04-15T07:23:04.173Z,99.99
2018-04-15T07:24:03.750Z,99.99
2018-04-15T07:25:05.447Z,99.99
2018-04-15T07:26:05.164Z,99.99
2018-04-15T07:27:01.831Z,99.99
2018-04-15T07:28:00.504Z,99.99
2018-04-15T07:29:02.713Z,99.99
2018-04-15T07:30:04.771Z,99.99
2018-04-15T07:31:20.033Z,99.99
2018-04-15T07:32:01.838Z,99.99
2018-04-15T07:33:06.412Z,99.99
2018-04-15T07:34:03.527Z,99.99
2018-04-15T07:35:02.300Z,99.99
2018-04-15T07:36:07.088Z,99.99
2018-04-15T07:37:05.401Z,99.99
2018-04-15T07:38:01.059Z,99.99
2018-04-15T07:39:02.782Z,99.99
2018-04-15T07:40:01.687Z,99.99
2018-04-15T07:41:04.378Z,99.99
2018-04-15T07:42:03.005Z,99.99
2018-04-15T07:43:03.240Z,99.99
2018-04-15T07:44:00.565Z,99.99
2018-04-15T07:45:05.080Z,99.99
2018-04-15T07:46:03.394Z,99.99
2018-04-15T07:47:02.939Z,99.99
2018-04-15T07:48:05.633Z,99.99
2018-04-15T07:49:03.061Z,99.99
2018-04-15T07:50:03.953Z,99.99
2018-04-15T07:51:04.396Z,99.99
2018-04-15T07:52:02.140Z,99.99
2018-04-15T07:53:04.573Z,99.99
2018-04-15T07:54:03.748Z,99.99
2018-04-15T07:55:04.269Z,99.99
2018-04-15T07:56:05.555Z,99.99
2018-04-15T07:57:08.457Z,99.99
2018-04-15T07:58:00.955Z,99.99
2018-04-15T07:59:02.105Z,99.99
2018-04-15T08:00:04.929Z,99.99
2018-04-15T08:01:03.955Z,99.99
2018-04-15T08:02:06.375Z,99.99
2018-04-15T08:03:04.175Z,99.99
2018-04-15T08:04:04.683Z,99.99
2018-04-15T08:05:05.549Z,99.99
2018-04-15T08:06:03.464Z,99.99
2018-04-15T08:07:07.654Z,99.99
2018-04-15T08:08:00.662Z,99.99
2018-04-15T08:09:03.423Z,99.99
2018-04-15T08:10:01.616Z,99.99
2018-04-15T08:11:02.136Z,99.99
2018-04-15T08:12:16.666Z,99.99
2018-04-15T08:13:06.379Z,99.99
2018-04-15T08:14:11.148Z,99.99
2018-04-15T08:15:10.627Z,99.99
2018-04-15T08:16:01.530Z,99.99
2018-04-15T08:17:05.662Z,99.99
2018-04-15T08:18:04.649Z,99.97
2018-04-15T08:19:11.726Z,95.70
2018-04-15T08:21:15.580Z,94.78
2018-04-15T08:23:04.302Z,90.51
2018-04-15T08:24:09.344Z,88.78
2018-04-15T08:25:08.296Z,89.74
2018-04-15T08:26:07.842Z,90.66
2018-04-15T08:27:07.787Z,92.86
2018-04-15T08:30:08.270Z,91.52
2018-04-15T08:31:12.256Z,91.90
2018-04-15T08:32:03.172Z,92.67
2018-04-15T08:33:00.302Z,91.33
2018-04-15T08:34:11.166Z,91.42
2018-04-15T08:35:08.546Z,92.96
2018-04-15T08:37:23.793Z,92.58
2018-04-15T08:38:04.188Z,92.00
2018-04-15T08:39:06.161Z,92.10
2018-04-15T08:40:13.929Z,89.93
2018-04-15T08:42:12.150Z,88.49
2018-04-15T08:43:06.562Z,89.89
2018-04-15T08:44:08.708Z,87.43
2018-04-15T08:45:08.879Z,86.09
2018-04-15T08:46:05.106Z,86.47
2018-04-15T08:48:08.320Z,87.29
2018-04-15T08:49:29.184Z,89.75
2018-04-15T08:51:20.597Z,90.13
2018-04-15T08:52:05.878Z,90.42
2018-04-15T08:56:05.039Z,95.17
2018-04-15T08:57:07.713Z,90.56
2018-04-15T08:59:03.921Z,91.62
2018-04-15T09:02:07.217Z,93.15
2018-04-15T09:03:09.822Z,92.77
2018-04-15T09:04:05.874Z,90.46
2018-04-15T09:06:17.842Z,83.53
2018-04-15T09:07:03.837Z,79.61
2018-04-15T09:08:04.657Z,75.88
2018-04-15T09:09:08.520Z,73.48
2018-04-15T09:10:03.717Z,68.75
2018-04-15T09:11:12.127Z,65.79
2018-04-15T09:12:19.171Z,65.08
2018-04-15T09:14:12.200Z,68.62
2018-04-15T09:16:04.821Z,73.62
2018-04-15T09:17:08.256Z,75.23
2018-04-15T09:18:07.822Z,78.69
2018-04-15T09:19:09.919Z,79.66
2018-04-15T09:20:08.125Z,78.56
2018-04-15T09:21:08.305Z,79.56
2018-04-15T09:23:04.943Z,74.96
2018-04-15T09:24:04.280Z,73.68
2018-04-15T09:25:03.025Z,73.68
2018-04-15T09:27:05.300Z,69.07
2018-04-15T09:28:08.860Z,69.07
2018-04-15T09:29:07.180Z,67.72
2018-04-15T09:30:04.618Z,68.43
2018-04-15T09:31:07.314Z,64.95
2018-04-15T09:32:06.890Z,63.31
2018-04-15T09:35:12.644Z,67.58
2018-04-15T09:36:09.762Z,66.33
2018-04-15T09:37:03.984Z,65.85
2018-04-15T09:38:06.789Z,64.82
2018-04-15T09:39:06.616Z,67.27
2018-04-15T09:40:04.798Z,68.55
2018-04-15T09:41:09.440Z,71.09
2018-04-15T09:43:31.765Z,63.95
2018-04-15T09:44:31.775Z,63.34
2018-04-15T09:45:31.780Z,63.92
2018-04-15T09:46:31.782Z,71.04
2018-04-15T09:47:31.853Z,71.30
2018-04-15T09:48:31.813Z,72.08
2018-04-15T09:49:31.908Z,68.55
2018-04-15T09:50:31.840Z,68.13
2018-04-15T09:51:31.900Z,64.95
2018-04-15T09:52:31.917Z,64.92
2018-04-15T09:53:31.900Z,64.14
2018-04-15T09:54:31.907Z,64.98
2018-04-15T09:55:31.935Z,73.44
2018-04-15T09:56:31.924Z,80.15
2018-04-15T09:57:31.961Z,82.54
2018-04-15T09:58:31.973Z,83.03
2018-04-15T09:59:31.981Z,83.22
2018-04-15T10:00:32.018Z,82.20
2018-04-15T10:01:32.717Z,81.67
2018-04-15T10:02:32.040Z,82.40
2018-04-15T10:03:32.688Z,82.34
2018-04-15T10:04:32.052Z,83.07
2018-04-15T10:05:32.040Z,82.97
2018-04-15T10:06:32.065Z,83.93
2018-04-15T10:07:32.069Z,84.75
2018-04-15T10:08:32.102Z,85.52
2018-04-15T10:09:32.141Z,85.67
2018-04-15T10:10:32.115Z,87.40
2018-04-15T10:11:32.112Z,86.77
2018-04-15T10:12:32.692Z,86.24
2018-04-15T10:13:32.138Z,85.66
2018-04-15T10:14:32.140Z,86.66
2018-04-15T10:15:32.153Z,84.84
2018-04-15T10:16:32.195Z,84.55
2018-04-15T10:17:32.204Z,84.51
2018-04-15T10:18:32.179Z,85.47
2018-04-15T10:19:32.225Z,84.70
2018-04-15T10:20:32.204Z,85.37
2018-04-15T10:21:32.211Z,86.05
2018-04-15T10:22:32.231Z,85.03
2018-04-15T10:23:32.232Z,81.65
2018-04-15T10:24:32.253Z,81.61
2018-04-15T10:25:32.240Z,82.57
2018-04-15T10:26:32.253Z,81.75
2018-04-15T10:27:33.212Z,80.50
2018-04-15T10:28:32.272Z,80.40
2018-04-15T10:29:33.199Z,82.32
2018-04-15T10:30:32.294Z,81.56
2018-04-15T10:31:32.294Z,81.07
2018-04-15T10:32:32.312Z,78.98
2018-04-15T10:33:32.306Z,73.58
2018-04-15T10:34:32.325Z,71.42
2018-04-15T10:35:32.325Z,71.60
2018-04-15T10:36:32.335Z,73.53
2018-04-15T10:37:32.340Z,72.18
2018-04-15T10:38:32.340Z,71.62
2018-04-15T10:39:32.355Z,72.56
2018-04-15T10:40:32.364Z,70.42
2018-04-15T10:41:32.394Z,69.58
2018-04-15T10:42:32.404Z,69.03
2018-04-15T10:43:32.398Z,70.70
2018-04-15T10:44:33.211Z,72.17
2018-04-15T10:45:32.428Z,72.36
2018-04-15T10:46:32.437Z,72.36
2018-04-15T10:47:32.431Z,72.65
2018-04-15T10:48:32.473Z,72.88
2018-04-15T10:49:32.485Z,70.70
2018-04-15T10:50:32.464Z,72.33
2018-04-15T10:51:32.470Z,71.02
2018-04-15T10:52:32.479Z,67.49
2018-04-15T10:53:32.498Z,64.01
2018-04-15T10:54:32.493Z,61.56
2018-04-15T10:55:32.515Z,60.57
2018-04-15T10:56:32.533Z,61.63
2018-04-15T10:57:32.529Z,63.79
2018-04-15T10:58:32.595Z,67.55
2018-04-15T10:59:32.549Z,70.31
2018-04-15T11:00:32.603Z,70.50
2018-04-15T11:01:32.571Z,68.26
2018-04-15T11:02:32.586Z,64.66
2018-04-15T11:03:32.599Z,62.63
2018-04-15T11:04:32.620Z,58.82
2018-04-15T11:05:32.673Z,59.18
2018-04-15T11:06:32.627Z,59.56
2018-04-15T11:07:32.654Z,59.66
2018-04-15T11:08:32.663Z,60.24
2018-04-15T11:09:32.661Z,59.31
2018-04-15T11:10:32.683Z,59.86
2018-04-15T11:11:32.690Z,59.58
2018-04-15T11:12:32.701Z,59.80
2018-04-15T11:13:32.703Z,62.54
2018-04-15T11:14:32.730Z,63.40
2018-04-15T11:15:32.736Z,63.85
2018-04-15T11:16:32.792Z,63.37
2018-04-15T11:17:32.807Z,62.86
2018-04-15T11:18:32.764Z,61.90
2018-04-15T11:19:32.769Z,63.89
2018-04-15T11:20:32.779Z,65.53
2018-04-15T11:21:32.822Z,64.76
2018-04-15T11:22:32.806Z,65.11
2018-04-15T11:23:32.810Z,66.75
2018-04-15T11:24:33.326Z,66.75
2018-04-15T11:25:32.856Z,65.30
2018-04-15T11:26:32.835Z,67.16
2018-04-15T11:27:32.862Z,66.97
2018-04-15T11:28:32.861Z,66.20
2018-04-15T11:29:32.861Z,66.46
2018-04-15T11:30:32.865Z,67.42
2018-04-15T11:31:32.887Z,67.33
2018-04-15T11:32:33.029Z,68.51
2018-04-15T11:33:32.892Z,70.56
2018-04-15T11:34:32.886Z,68.10
2018-04-15T11:35:34.248Z,68.54
2018-04-15T11:36:33.748Z,70.37
2018-04-15T11:37:32.922Z,69.60
2018-04-15T11:38:32.967Z,69.31
2018-04-15T11:39:32.935Z,69.51
2018-04-15T11:40:32.940Z,68.74
2018-04-15T11:41:32.945Z,69.45
2018-04-15T11:42:32.953Z,68.80
2018-04-15T11:43:32.982Z,70.30
2018-04-15T11:44:32.965Z,71.23
2018-04-15T11:45:32.975Z,72.48
2018-04-15T11:46:33.037Z,72.86
2018-04-15T11:47:32.994Z,73.63
2018-04-15T11:48:32.988Z,74.75
2018-04-15T11:49:33.006Z,76.39
2018-04-15T11:50:33.006Z,74.60
2018-04-15T11:51:33.153Z,74.79
2018-04-15T11:52:33.025Z,74.79
2018-04-15T11:53:33.033Z,72.61
2018-04-15T11:54:33.094Z,71.34
2018-04-15T11:55:33.749Z,70.70
2018-04-15T11:56:33.046Z,71.08
2018-04-15T11:57:33.039Z,68.80
2018-04-15T11:58:33.083Z,68.71
2018-04-15T11:59:33.059Z,66.97
2018-04-15T12:00:33.063Z,65.91
2018-04-15T12:01:33.067Z,67.55
2018-04-15T12:02:33.079Z,67.42
2018-04-15T12:03:33.086Z,67.42
2018-04-15T12:04:33.091Z,65.81
2018-04-15T12:05:33.105Z,64.02
2018-04-15T12:06:33.118Z,64.40
2018-04-15T12:07:33.109Z,65.85
2018-04-15T12:08:33.178Z,65.30
2018-04-15T12:09:33.108Z,63.12
2018-04-15T12:10:33.135Z,61.47
2018-04-15T12:11:33.118Z,61.96
2018-04-15T12:12:33.131Z,61.06
2018-04-15T12:13:33.130Z,62.76
2018-04-15T12:14:33.145Z,62.28
2018-04-15T12:15:33.156Z,63.82
2018-04-15T12:16:33.152Z,63.63
2018-04-15T12:17:33.164Z,62.93
2018-04-15T12:18:33.172Z,62.48
2018-04-15T12:19:33.172Z,63.37
2018-04-15T12:20:33.179Z,63.67
2018-04-15T12:21:33.182Z,62.09
2018-04-15T12:22:33.192Z,62.48
2018-04-15T12:23:33.195Z,62.70
2018-04-15T12:24:33.207Z,60.58
2018-04-15T12:25:33.205Z,61.22
2018-04-15T12:26:33.223Z,61.32
2018-04-15T12:27:33.212Z,61.32
2018-04-15T12:28:33.223Z,62.67
2018-04-15T12:29:33.235Z,63.82
2018-04-15T12:30:33.275Z,65.75
2018-04-15T12:31:33.292Z,66.81
2018-04-15T12:32:33.249Z,65.17
2018-04-15T12:33:33.286Z,66.10
2018-04-15T12:34:33.266Z,67.26
2018-04-15T12:35:33.300Z,67.07
2018-04-15T12:36:33.278Z,67.45
2018-04-15T12:37:33.274Z,68.80
2018-04-15T12:38:33.290Z,68.03
2018-04-15T12:39:33.289Z,70.43
2018-04-15T12:40:33.290Z,70.34
2018-04-15T12:41:33.300Z,67.74
2018-04-15T12:42:33.318Z,67.45
2018-04-15T12:43:33.315Z,66.71
2018-04-15T12:44:33.329Z,65.63
2018-04-15T12:45:33.328Z,64.47
2018-04-15T12:46:33.497Z,63.89
2018-04-15T12:47:33.336Z,65.33
2018-04-15T12:48:33.355Z,65.81
2018-04-15T12:49:33.374Z,65.72
2018-04-15T12:50:33.353Z,65.14
2018-04-15T12:51:33.357Z,66.10
2018-04-15T12:52:33.375Z,66.49
2018-04-15T12:53:33.439Z,65.72
2018-04-15T12:54:33.372Z,66.68
2018-04-15T12:55:33.439Z,66.04
2018-04-15T12:56:33.398Z,67.39
2018-04-15T12:57:33.387Z,66.91
2018-04-15T12:58:33.397Z,67.58
2018-04-15T12:59:33.412Z,69.41
2018-04-15T13:00:33.407Z,68.26
2018-04-15T13:01:33.415Z,67.00
2018-04-15T13:02:33.431Z,66.85
2018-04-15T13:03:33.422Z,66.91
2018-04-15T13:04:33.443Z,68.44
2018-04-15T13:05:33.450Z,68.35
2018-04-15T13:06:33.459Z,67.35
2018-04-15T13:07:33.461Z,67.97
2018-04-15T13:08:33.449Z,68.93
2018-04-15T13:09:33.490Z,67.29
2018-04-15T13:10:33.464Z,67.39
2018-04-15T13:11:33.478Z,66.91
2018-04-15T13:12:33.483Z,67.10
2018-04-15T13:13:33.507Z,66.91
2018-04-15T13:14:34.310Z,66.88
2018-04-15T13:15:33.488Z,68.03
2018-04-15T13:16:33.491Z,68.57
2018-04-15T13:17:33.669Z,69.34
2018-04-15T13:18:33.506Z,69.06
2018-04-15T13:19:34.025Z,69.12
2018-04-15T13:20:33.530Z,69.21
2018-04-15T13:21:33.531Z,70.17